sensor_id;sensor_type;location;lat;lon;timestamp;temperature;humidity
25945;SHT31;13742;49.306;8.636;2023-03-01T00:00:23;1.70;63.37
25945;SHT31;13742;49.306;8.636;2023-03-01T00:01:28;1.68;63.31
25945;SHT31;13742;49.306;8.636;2023-03-01T00:02:23;1.70;63.29
25945;SHT31;13742;49.306;8.636;2023-03-01T00:03:24;1.70;63.32
25945;SHT31;13742;49.306;8.636;2023-03-01T00:04:23;1.68;63.20
25945;SHT31;13742;49.306;8.636;2023-03-01T00:05:23;1.68;63.45
25945;SHT31;13742;49.306;8.636;2023-03-01T00:06:24;1.68;63.54
25945;SHT31;13742;49.306;8.636;2023-03-01T00:07:23;1.65;63.69
25945;SHT31;13742;49.306;8.636;2023-03-01T00:08:23;1.70;63.65
25945;SHT31;13742;49.306;8.636;2023-03-01T00:09:23;1.68;63.65
25945;SHT31;13742;49.306;8.636;2023-03-01T00:10:23;1.67;63.52
25945;SHT31;13742;49.306;8.636;2023-03-01T00:11:25;1.68;63.40
25945;SHT31;13742;49.306;8.636;2023-03-01T00:12:23;1.71;63.69
25945;SHT31;13742;49.306;8.636;2023-03-01T00:13:23;1.68;63.68
25945;SHT31;13742;49.306;8.636;2023-03-01T00:14:23;1.68;63.84
25945;SHT31;13742;49.306;8.636;2023-03-01T00:15:23;1.70;63.68
25945;SHT31;13742;49.306;8.636;2023-03-01T00:16:26;1.71;63.62
25945;SHT31;13742;49.306;8.636;2023-03-01T00:17:23;1.71;63.77
25945;SHT31;13742;49.306;8.636;2023-03-01T00:18:23;1.71;63.64
25945;SHT31;13742;49.306;8.636;2023-03-01T00:19:23;1.67;63.79
25945;SHT31;13742;49.306;8.636;2023-03-01T00:20:23;1.65;63.79
25945;SHT31;13742;49.306;8.636;2023-03-01T00:21:23;1.65;63.59
25945;SHT31;13742;49.306;8.636;2023-03-01T00:22:23;1.67;63.87
25945;SHT31;13742;49.306;8.636;2023-03-01T00:23:23;1.67;63.81
25945;SHT31;13742;49.306;8.636;2023-03-01T00:24:23;1.62;64.11
25945;SHT31;13742;49.306;8.636;2023-03-01T00:25:23;1.64;63.90
25945;SHT31;13742;49.306;8.636;2023-03-01T00:26:24;1.65;64.06
25945;SHT31;13742;49.306;8.636;2023-03-01T00:27:23;1.65;64.06
25945;SHT31;13742;49.306;8.636;2023-03-01T00:28:23;1.68;63.99
25945;SHT31;13742;49.306;8.636;2023-03-01T00:29:24;1.70;63.66
25945;SHT31;13742;49.306;8.636;2023-03-01T00:30:23;1.64;64.10
25945;SHT31;13742;49.306;8.636;2023-03-01T00:31:28;1.67;64.20
25945;SHT31;13742;49.306;8.636;2023-03-01T00:32:23;1.62;64.06
25945;SHT31;13742;49.306;8.636;2023-03-01T00:33:23;1.61;64.19
25945;SHT31;13742;49.306;8.636;2023-03-01T00:34:23;1.61;64.20
25945;SHT31;13742;49.306;8.636;2023-03-01T00:35:23;1.62;63.98
25945;SHT31;13742;49.306;8.636;2023-03-01T00:36:25;1.60;63.88
25945;SHT31;13742;49.306;8.636;2023-03-01T00:37:23;1.61;64.14
25945;SHT31;13742;49.306;8.636;2023-03-01T00:38:23;1.62;64.11
25945;SHT31;13742;49.306;8.636;2023-03-01T00:39:23;1.58;64.18
25945;SHT31;13742;49.306;8.636;2023-03-01T00:40:24;1.57;64.21
25945;SHT31;13742;49.306;8.636;2023-03-01T00:41:23;1.55;64.45
25945;SHT31;13742;49.306;8.636;2023-03-01T00:42:23;1.57;64.52
25945;SHT31;13742;49.306;8.636;2023-03-01T00:43:23;1.55;64.22
25945;SHT31;13742;49.306;8.636;2023-03-01T00:44:23;1.54;64.62
25945;SHT31;13742;49.306;8.636;2023-03-01T00:45:23;1.51;64.57
25945;SHT31;13742;49.306;8.636;2023-03-01T00:47:29;1.49;64.70
25945;SHT31;13742;49.306;8.636;2023-03-01T00:48:23;1.53;64.58
25945;SHT31;13742;49.306;8.636;2023-03-01T00:49:24;1.50;64.90
25945;SHT31;13742;49.306;8.636;2023-03-01T00:50:23;1.51;64.81
25945;SHT31;13742;49.306;8.636;2023-03-01T00:51:25;1.47;64.83
25945;SHT31;13742;49.306;8.636;2023-03-01T00:52:23;1.50;64.81
25945;SHT31;13742;49.306;8.636;2023-03-01T00:53:23;1.50;64.92
25945;SHT31;13742;49.306;8.636;2023-03-01T00:54:23;1.47;64.96
25945;SHT31;13742;49.306;8.636;2023-03-01T00:55:24;1.49;65.11
25945;SHT31;13742;49.306;8.636;2023-03-01T00:56:23;1.46;65.09
25945;SHT31;13742;49.306;8.636;2023-03-01T00:57:23;1.46;64.88
25945;SHT31;13742;49.306;8.636;2023-03-01T00:58:23;1.46;65.09
25945;SHT31;13742;49.306;8.636;2023-03-01T00:59:23;1.46;65.18
25945;SHT31;13742;49.306;8.636;2023-03-01T01:00:23;1.50;65.20
25945;SHT31;13742;49.306;8.636;2023-03-01T01:01:28;1.46;65.24
25945;SHT31;13742;49.306;8.636;2023-03-01T01:02:23;1.44;65.24
25945;SHT31;13742;49.306;8.636;2023-03-01T01:03:24;1.44;65.21
25945;SHT31;13742;49.306;8.636;2023-03-01T01:04:23;1.47;65.02
25945;SHT31;13742;49.306;8.636;2023-03-01T01:05:23;1.49;65.12
25945;SHT31;13742;49.306;8.636;2023-03-01T01:06:31;1.43;65.27
25945;SHT31;13742;49.306;8.636;2023-03-01T01:07:23;1.43;65.31
25945;SHT31;13742;49.306;8.636;2023-03-01T01:08:23;1.46;64.95
25945;SHT31;13742;49.306;8.636;2023-03-01T01:09:23;1.44;65.21
25945;SHT31;13742;49.306;8.636;2023-03-01T01:10:23;1.43;65.13
25945;SHT31;13742;49.306;8.636;2023-03-01T01:11:25;1.40;65.20
25945;SHT31;13742;49.306;8.636;2023-03-01T01:12:23;1.40;65.40
25945;SHT31;13742;49.306;8.636;2023-03-01T01:13:23;1.39;65.38
25945;SHT31;13742;49.306;8.636;2023-03-01T01:14:23;1.39;65.49
25945;SHT31;13742;49.306;8.636;2023-03-01T01:15:23;1.39;65.49
25945;SHT31;13742;49.306;8.636;2023-03-01T01:16:25;1.36;65.18
25945;SHT31;13742;49.306;8.636;2023-03-01T01:17:23;1.36;65.60
25945;SHT31;13742;49.306;8.636;2023-03-01T01:18:23;1.34;65.19
25945;SHT31;13742;49.306;8.636;2023-03-01T01:19:23;1.34;65.27
25945;SHT31;13742;49.306;8.636;2023-03-01T01:20:23;1.36;65.52
25945;SHT31;13742;49.306;8.636;2023-03-01T01:21:23;1.34;65.53
25945;SHT31;13742;49.306;8.636;2023-03-01T01:22:23;1.34;65.25
25945;SHT31;13742;49.306;8.636;2023-03-01T01:23:23;1.33;65.15
25945;SHT31;13742;49.306;8.636;2023-03-01T01:24:23;1.34;65.17
25945;SHT31;13742;49.306;8.636;2023-03-01T01:25:26;1.34;65.37
25945;SHT31;13742;49.306;8.636;2023-03-01T01:26:26;1.31;65.27
25945;SHT31;13742;49.306;8.636;2023-03-01T01:27:23;1.34;65.38
25945;SHT31;13742;49.306;8.636;2023-03-01T01:28:23;1.33;65.73
25945;SHT31;13742;49.306;8.636;2023-03-01T01:29:23;1.30;65.69
25945;SHT31;13742;49.306;8.636;2023-03-01T01:30:23;1.31;65.31
25945;SHT31;13742;49.306;8.636;2023-03-01T01:31:26;1.29;65.55
25945;SHT31;13742;49.306;8.636;2023-03-01T01:32:23;1.30;65.56
25945;SHT31;13742;49.306;8.636;2023-03-01T01:33:23;1.27;65.61
25945;SHT31;13742;49.306;8.636;2023-03-01T01:34:23;1.27;65.22
25945;SHT31;13742;49.306;8.636;2023-03-01T01:35:23;1.27;65.70
25945;SHT31;13742;49.306;8.636;2023-03-01T01:36:23;1.23;65.59
25945;SHT31;13742;49.306;8.636;2023-03-01T01:37:23;1.26;65.88
25945;SHT31;13742;49.306;8.636;2023-03-01T01:38:23;1.23;65.79
25945;SHT31;13742;49.306;8.636;2023-03-01T01:39:23;1.16;66.43
25945;SHT31;13742;49.306;8.636;2023-03-01T01:40:23;1.19;66.42
25945;SHT31;13742;49.306;8.636;2023-03-01T01:41:25;1.19;66.36
25945;SHT31;13742;49.306;8.636;2023-03-01T01:42:23;1.18;66.28
25945;SHT31;13742;49.306;8.636;2023-03-01T01:43:26;1.19;66.26
25945;SHT31;13742;49.306;8.636;2023-03-01T01:44:25;1.18;66.27
25945;SHT31;13742;49.306;8.636;2023-03-01T01:45:34;1.18;66.18
25945;SHT31;13742;49.306;8.636;2023-03-01T01:46:28;1.16;66.38
25945;SHT31;13742;49.306;8.636;2023-03-01T01:47:23;1.15;66.25
25945;SHT31;13742;49.306;8.636;2023-03-01T01:48:29;1.18;65.98
25945;SHT31;13742;49.306;8.636;2023-03-01T01:49:30;1.12;66.17
25945;SHT31;13742;49.306;8.636;2023-03-01T01:50:23;1.16;65.96
25945;SHT31;13742;49.306;8.636;2023-03-01T01:51:27;1.18;66.40
25945;SHT31;13742;49.306;8.636;2023-03-01T01:52:27;1.13;66.06
25945;SHT31;13742;49.306;8.636;2023-03-01T01:53:24;1.18;65.80
25945;SHT31;13742;49.306;8.636;2023-03-01T01:54:34;1.16;66.31
25945;SHT31;13742;49.306;8.636;2023-03-01T01:55:25;1.18;66.05
25945;SHT31;13742;49.306;8.636;2023-03-01T01:56:24;1.16;66.35
25945;SHT31;13742;49.306;8.636;2023-03-01T01:57:31;1.13;66.42
25945;SHT31;13742;49.306;8.636;2023-03-01T01:58:24;1.16;66.22
25945;SHT31;13742;49.306;8.636;2023-03-01T01:59:25;1.13;66.36
25945;SHT31;13742;49.306;8.636;2023-03-01T02:00:26;1.16;66.37
25945;SHT31;13742;49.306;8.636;2023-03-01T02:01:23;1.15;66.31
25945;SHT31;13742;49.306;8.636;2023-03-01T02:02:23;1.18;66.52
25945;SHT31;13742;49.306;8.636;2023-03-01T02:03:27;1.18;66.49
25945;SHT31;13742;49.306;8.636;2023-03-01T02:04:23;1.22;66.38
25945;SHT31;13742;49.306;8.636;2023-03-01T02:05:29;1.20;66.20
25945;SHT31;13742;49.306;8.636;2023-03-01T02:06:32;1.24;66.49
25945;SHT31;13742;49.306;8.636;2023-03-01T02:07:23;1.19;66.41
25945;SHT31;13742;49.306;8.636;2023-03-01T02:08:25;1.19;66.30
25945;SHT31;13742;49.306;8.636;2023-03-01T02:09:23;1.19;66.57
25945;SHT31;13742;49.306;8.636;2023-03-01T02:10:23;1.19;66.14
25945;SHT31;13742;49.306;8.636;2023-03-01T02:11:23;1.16;66.57
25945;SHT31;13742;49.306;8.636;2023-03-01T02:12:23;1.15;66.77
25945;SHT31;13742;49.306;8.636;2023-03-01T02:13:23;1.18;66.77
25945;SHT31;13742;49.306;8.636;2023-03-01T02:14:23;1.16;66.65
25945;SHT31;13742;49.306;8.636;2023-03-01T02:15:23;1.13;66.70
25945;SHT31;13742;49.306;8.636;2023-03-01T02:16:23;1.13;66.56
25945;SHT31;13742;49.306;8.636;2023-03-01T02:17:23;1.13;66.79
25945;SHT31;13742;49.306;8.636;2023-03-01T02:18:24;1.09;66.57
25945;SHT31;13742;49.306;8.636;2023-03-01T02:19:38;1.09;66.27
25945;SHT31;13742;49.306;8.636;2023-03-01T02:22:34;1.09;66.53
25945;SHT31;13742;49.306;8.636;2023-03-01T02:23:23;1.07;66.39
25945;SHT31;13742;49.306;8.636;2023-03-01T02:24:34;1.07;66.62
25945;SHT31;13742;49.306;8.636;2023-03-01T02:25:30;1.09;66.83
25945;SHT31;13742;49.306;8.636;2023-03-01T02:26:35;1.06;66.57
25945;SHT31;13742;49.306;8.636;2023-03-01T02:28:34;1.10;66.67
25945;SHT31;13742;49.306;8.636;2023-03-01T02:29:24;1.12;66.62
25945;SHT31;13742;49.306;8.636;2023-03-01T02:30:24;1.13;66.83
25945;SHT31;13742;49.306;8.636;2023-03-01T02:31:28;1.10;66.33
25945;SHT31;13742;49.306;8.636;2023-03-01T02:32:25;1.10;66.11
25945;SHT31;13742;49.306;8.636;2023-03-01T02:33:23;1.13;66.55
25945;SHT31;13742;49.306;8.636;2023-03-01T02:34:25;1.16;66.92
25945;SHT31;13742;49.306;8.636;2023-03-01T02:35:23;1.16;66.32
25945;SHT31;13742;49.306;8.636;2023-03-01T02:36:26;1.12;66.43
25945;SHT31;13742;49.306;8.636;2023-03-01T02:37:25;1.15;66.76
25945;SHT31;13742;49.306;8.636;2023-03-01T02:38:23;1.13;66.56
25945;SHT31;13742;49.306;8.636;2023-03-01T02:39:29;1.15;66.53
25945;SHT31;13742;49.306;8.636;2023-03-01T02:40:23;1.13;66.28
25945;SHT31;13742;49.306;8.636;2023-03-01T02:41:24;1.13;66.42
25945;SHT31;13742;49.306;8.636;2023-03-01T02:42:26;1.13;66.53
25945;SHT31;13742;49.306;8.636;2023-03-01T02:43:27;1.10;66.71
25945;SHT31;13742;49.306;8.636;2023-03-01T02:44:23;1.06;66.55
25945;SHT31;13742;49.306;8.636;2023-03-01T02:45:23;1.02;66.66
25945;SHT31;13742;49.306;8.636;2023-03-01T02:46:25;1.02;66.93
25945;SHT31;13742;49.306;8.636;2023-03-01T02:47:23;1.00;66.92
25945;SHT31;13742;49.306;8.636;2023-03-01T02:48:23;0.96;66.77
25945;SHT31;13742;49.306;8.636;2023-03-01T02:49:28;0.96;67.02
25945;SHT31;13742;49.306;8.636;2023-03-01T02:52:30;0.88;66.82
25945;SHT31;13742;49.306;8.636;2023-03-01T02:53:32;0.89;66.80
25945;SHT31;13742;49.306;8.636;2023-03-01T02:54:33;0.91;67.10
25945;SHT31;13742;49.306;8.636;2023-03-01T02:55:23;0.86;67.02
25945;SHT31;13742;49.306;8.636;2023-03-01T02:56:23;0.86;67.62
25945;SHT31;13742;49.306;8.636;2023-03-01T02:57:23;0.86;67.36
25945;SHT31;13742;49.306;8.636;2023-03-01T02:58:23;0.86;67.57
25945;SHT31;13742;49.306;8.636;2023-03-01T02:59:27;0.85;67.45
25945;SHT31;13742;49.306;8.636;2023-03-01T03:00:26;0.88;67.75
25945;SHT31;13742;49.306;8.636;2023-03-01T03:01:23;0.88;67.55
25945;SHT31;13742;49.306;8.636;2023-03-01T03:02:36;0.85;67.53
25945;SHT31;13742;49.306;8.636;2023-03-01T03:03:23;0.83;67.60
25945;SHT31;13742;49.306;8.636;2023-03-01T03:04:23;0.82;67.57
25945;SHT31;13742;49.306;8.636;2023-03-01T03:05:29;0.82;67.56
25945;SHT31;13742;49.306;8.636;2023-03-01T03:06:23;0.81;67.55
25945;SHT31;13742;49.306;8.636;2023-03-01T03:07:23;0.83;67.62
25945;SHT31;13742;49.306;8.636;2023-03-01T03:08:23;0.81;67.76
25945;SHT31;13742;49.306;8.636;2023-03-01T03:09:23;0.76;68.06
25945;SHT31;13742;49.306;8.636;2023-03-01T03:10:25;0.79;67.87
25945;SHT31;13742;49.306;8.636;2023-03-01T03:11:23;0.82;67.88
25945;SHT31;13742;49.306;8.636;2023-03-01T03:12:23;0.81;67.35
25945;SHT31;13742;49.306;8.636;2023-03-01T03:13:28;0.81;67.68
25945;SHT31;13742;49.306;8.636;2023-03-01T03:14:23;0.81;67.52
25945;SHT31;13742;49.306;8.636;2023-03-01T03:15:23;0.79;67.80
25945;SHT31;13742;49.306;8.636;2023-03-01T03:16:23;0.78;67.68
25945;SHT31;13742;49.306;8.636;2023-03-01T03:17:23;0.73;67.89
25945;SHT31;13742;49.306;8.636;2023-03-01T03:18:23;0.71;67.95
25945;SHT31;13742;49.306;8.636;2023-03-01T03:19:23;0.75;68.04
25945;SHT31;13742;49.306;8.636;2023-03-01T03:20:25;0.73;67.79
25945;SHT31;13742;49.306;8.636;2023-03-01T03:21:23;0.71;67.79
25945;SHT31;13742;49.306;8.636;2023-03-01T03:22:23;0.69;67.87
25945;SHT31;13742;49.306;8.636;2023-03-01T03:23:23;0.69;68.01
25945;SHT31;13742;49.306;8.636;2023-03-01T03:24:23;0.68;68.32
25945;SHT31;13742;49.306;8.636;2023-03-01T03:25:23;0.69;67.94
25945;SHT31;13742;49.306;8.636;2023-03-01T03:26:23;0.67;68.20
25945;SHT31;13742;49.306;8.636;2023-03-01T03:27:23;0.68;67.93
25945;SHT31;13742;49.306;8.636;2023-03-01T03:28:23;0.67;68.22
25945;SHT31;13742;49.306;8.636;2023-03-01T03:29:23;0.62;68.59
25945;SHT31;13742;49.306;8.636;2023-03-01T03:30:29;0.64;68.36
25945;SHT31;13742;49.306;8.636;2023-03-01T03:31:23;0.61;68.27
25945;SHT31;13742;49.306;8.636;2023-03-01T03:32:23;0.58;68.55
25945;SHT31;13742;49.306;8.636;2023-03-01T03:33:23;0.60;68.22
25945;SHT31;13742;49.306;8.636;2023-03-01T03:34:23;0.55;68.42
25945;SHT31;13742;49.306;8.636;2023-03-01T03:35:31;0.57;68.45
25945;SHT31;13742;49.306;8.636;2023-03-01T03:36:24;0.58;68.17
25945;SHT31;13742;49.306;8.636;2023-03-01T03:37:28;0.57;68.57
25945;SHT31;13742;49.306;8.636;2023-03-01T03:38:23;0.54;68.73
25945;SHT31;13742;49.306;8.636;2023-03-01T03:39:24;0.58;68.57
25945;SHT31;13742;49.306;8.636;2023-03-01T03:40:23;0.62;68.73
25945;SHT31;13742;49.306;8.636;2023-03-01T03:41:23;0.62;68.61
25945;SHT31;13742;49.306;8.636;2023-03-01T03:42:22;0.62;68.53
25945;SHT31;13742;49.306;8.636;2023-03-01T03:43:23;0.62;68.47
25945;SHT31;13742;49.306;8.636;2023-03-01T03:44:23;0.60;68.45
25945;SHT31;13742;49.306;8.636;2023-03-01T03:45:23;0.61;68.35
25945;SHT31;13742;49.306;8.636;2023-03-01T03:46:22;0.61;68.20
25945;SHT31;13742;49.306;8.636;2023-03-01T03:47:23;0.58;68.55
25945;SHT31;13742;49.306;8.636;2023-03-01T03:48:23;0.58;68.51
25945;SHT31;13742;49.306;8.636;2023-03-01T03:49:23;0.57;68.42
25945;SHT31;13742;49.306;8.636;2023-03-01T03:50:22;0.54;68.79
25945;SHT31;13742;49.306;8.636;2023-03-01T03:51:23;0.57;68.99
25945;SHT31;13742;49.306;8.636;2023-03-01T03:52:23;0.60;68.87
25945;SHT31;13742;49.306;8.636;2023-03-01T03:53:25;0.60;68.60
25945;SHT31;13742;49.306;8.636;2023-03-01T03:54:23;0.60;68.36
25945;SHT31;13742;49.306;8.636;2023-03-01T03:55:23;0.57;68.89
25945;SHT31;13742;49.306;8.636;2023-03-01T03:56:25;0.57;68.69
25945;SHT31;13742;49.306;8.636;2023-03-01T03:57:23;0.55;68.89
25945;SHT31;13742;49.306;8.636;2023-03-01T03:58:24;0.60;69.07
25945;SHT31;13742;49.306;8.636;2023-03-01T03:59:23;0.62;68.74
25945;SHT31;13742;49.306;8.636;2023-03-01T04:00:24;0.57;68.76
25945;SHT31;13742;49.306;8.636;2023-03-01T04:01:23;0.52;69.13
25945;SHT31;13742;49.306;8.636;2023-03-01T04:02:24;0.50;69.03
25945;SHT31;13742;49.306;8.636;2023-03-01T04:03:24;0.52;69.22
25945;SHT31;13742;49.306;8.636;2023-03-01T04:04:22;0.45;69.46
25945;SHT31;13742;49.306;8.636;2023-03-01T04:05:23;0.48;69.03
25945;SHT31;13742;49.306;8.636;2023-03-01T04:06:23;0.47;69.15
25945;SHT31;13742;49.306;8.636;2023-03-01T04:07:23;0.42;69.20
25945;SHT31;13742;49.306;8.636;2023-03-01T04:08:23;0.44;69.27
25945;SHT31;13742;49.306;8.636;2023-03-01T04:09:23;0.45;69.41
25945;SHT31;13742;49.306;8.636;2023-03-01T04:10:22;0.44;69.34
25945;SHT31;13742;49.306;8.636;2023-03-01T04:11:26;0.44;69.32
25945;SHT31;13742;49.306;8.636;2023-03-01T04:12:23;0.42;69.34
25945;SHT31;13742;49.306;8.636;2023-03-01T04:13:23;0.44;69.29
25945;SHT31;13742;49.306;8.636;2023-03-01T04:14:22;0.44;68.97
25945;SHT31;13742;49.306;8.636;2023-03-01T04:15:25;0.45;69.08
25945;SHT31;13742;49.306;8.636;2023-03-01T04:16:23;0.51;69.28
25945;SHT31;13742;49.306;8.636;2023-03-01T04:17:23;0.52;68.95
25945;SHT31;13742;49.306;8.636;2023-03-01T04:18:23;0.50;68.57
25945;SHT31;13742;49.306;8.636;2023-03-01T04:19:22;0.51;68.97
25945;SHT31;13742;49.306;8.636;2023-03-01T04:20:30;0.55;68.87
25945;SHT31;13742;49.306;8.636;2023-03-01T04:21:23;0.55;68.74
25945;SHT31;13742;49.306;8.636;2023-03-01T04:22:23;0.60;68.80
25945;SHT31;13742;49.306;8.636;2023-03-01T04:23:22;0.57;68.61
25945;SHT31;13742;49.306;8.636;2023-03-01T04:24:22;0.57;68.42
25945;SHT31;13742;49.306;8.636;2023-03-01T04:25:23;0.58;68.47
25945;SHT31;13742;49.306;8.636;2023-03-01T04:26:22;0.57;68.57
25945;SHT31;13742;49.306;8.636;2023-03-01T04:27:23;0.60;68.61
25945;SHT31;13742;49.306;8.636;2023-03-01T04:28:26;0.60;68.64
25945;SHT31;13742;49.306;8.636;2023-03-01T04:29:22;0.61;68.34
25945;SHT31;13742;49.306;8.636;2023-03-01T04:30:25;0.62;68.54
25945;SHT31;13742;49.306;8.636;2023-03-01T04:31:23;0.62;68.81
25945;SHT31;13742;49.306;8.636;2023-03-01T04:32:22;0.65;68.80
25945;SHT31;13742;49.306;8.636;2023-03-01T04:33:24;0.64;68.35
25945;SHT31;13742;49.306;8.636;2023-03-01T04:34:22;0.64;68.74
25945;SHT31;13742;49.306;8.636;2023-03-01T04:35:22;0.67;68.44
25945;SHT31;13742;49.306;8.636;2023-03-01T04:36:25;0.67;68.50
25945;SHT31;13742;49.306;8.636;2023-03-01T04:37:24;0.68;68.72
25945;SHT31;13742;49.306;8.636;2023-03-01T04:38:22;0.65;68.70
25945;SHT31;13742;49.306;8.636;2023-03-01T04:39:22;0.67;68.70
25945;SHT31;13742;49.306;8.636;2023-03-01T04:40:22;0.69;68.83
25945;SHT31;13742;49.306;8.636;2023-03-01T04:41:24;0.64;68.35
25945;SHT31;13742;49.306;8.636;2023-03-01T04:42:22;0.67;68.55
25945;SHT31;13742;49.306;8.636;2023-03-01T04:43:22;0.62;68.08
25945;SHT31;13742;49.306;8.636;2023-03-01T04:44:22;0.64;68.24
25945;SHT31;13742;49.306;8.636;2023-03-01T04:45:23;0.61;68.07
25945;SHT31;13742;49.306;8.636;2023-03-01T04:46:22;0.61;68.38
25945;SHT31;13742;49.306;8.636;2023-03-01T04:47:22;0.62;68.89
25945;SHT31;13742;49.306;8.636;2023-03-01T04:48:22;0.60;69.04
25945;SHT31;13742;49.306;8.636;2023-03-01T04:49:23;0.60;68.65
25945;SHT31;13742;49.306;8.636;2023-03-01T04:50:24;0.51;69.29
25945;SHT31;13742;49.306;8.636;2023-03-01T04:51:22;0.47;69.07
25945;SHT31;13742;49.306;8.636;2023-03-01T04:52:22;0.44;69.17
25945;SHT31;13742;49.306;8.636;2023-03-01T04:53:23;0.44;69.10
25945;SHT31;13742;49.306;8.636;2023-03-01T04:54:22;0.45;69.39
25945;SHT31;13742;49.306;8.636;2023-03-01T04:55:27;0.48;69.38
25945;SHT31;13742;49.306;8.636;2023-03-01T04:56:23;0.42;69.50
25945;SHT31;13742;49.306;8.636;2023-03-01T04:57:22;0.42;69.54
25945;SHT31;13742;49.306;8.636;2023-03-01T04:58:24;0.45;69.39
25945;SHT31;13742;49.306;8.636;2023-03-01T04:59:22;0.47;69.12
25945;SHT31;13742;49.306;8.636;2023-03-01T05:00:23;0.48;69.20
25945;SHT31;13742;49.306;8.636;2023-03-01T05:01:22;0.51;69.35
25945;SHT31;13742;49.306;8.636;2023-03-01T05:02:23;0.52;69.44
25945;SHT31;13742;49.306;8.636;2023-03-01T05:03:23;0.48;69.08
25945;SHT31;13742;49.306;8.636;2023-03-01T05:04:23;0.42;69.39
25945;SHT31;13742;49.306;8.636;2023-03-01T05:05:28;0.42;69.24
25945;SHT31;13742;49.306;8.636;2023-03-01T05:06:22;0.41;69.03
25945;SHT31;13742;49.306;8.636;2023-03-01T05:07:24;0.38;68.96
25945;SHT31;13742;49.306;8.636;2023-03-01T05:08:22;0.36;69.01
25945;SHT31;13742;49.306;8.636;2023-03-01T05:09:22;0.33;68.99
25945;SHT31;13742;49.306;8.636;2023-03-01T05:10:23;0.34;69.21
25945;SHT31;13742;49.306;8.636;2023-03-01T05:11:23;0.34;69.27
25945;SHT31;13742;49.306;8.636;2023-03-01T05:12:23;0.31;69.09
25945;SHT31;13742;49.306;8.636;2023-03-01T05:13:23;0.33;69.21
25945;SHT31;13742;49.306;8.636;2023-03-01T05:14:22;0.33;69.12
25945;SHT31;13742;49.306;8.636;2023-03-01T05:15:26;0.36;69.60
25945;SHT31;13742;49.306;8.636;2023-03-01T05:16:22;0.30;69.09
25945;SHT31;13742;49.306;8.636;2023-03-01T05:17:23;0.33;69.24
25945;SHT31;13742;49.306;8.636;2023-03-01T05:18:27;0.30;69.39
25945;SHT31;13742;49.306;8.636;2023-03-01T05:19:22;0.30;69.59
25945;SHT31;13742;49.306;8.636;2023-03-01T05:20:22;0.29;69.46
25945;SHT31;13742;49.306;8.636;2023-03-01T05:21:22;0.29;69.30
25945;SHT31;13742;49.306;8.636;2023-03-01T05:22:23;0.23;69.16
25945;SHT31;13742;49.306;8.636;2023-03-01T05:23:22;0.23;69.11
25945;SHT31;13742;49.306;8.636;2023-03-01T05:24:23;0.24;69.25
25945;SHT31;13742;49.306;8.636;2023-03-01T05:25:22;0.23;69.17
25945;SHT31;13742;49.306;8.636;2023-03-01T05:26:27;0.23;69.75
25945;SHT31;13742;49.306;8.636;2023-03-01T05:27:22;0.23;69.70
25945;SHT31;13742;49.306;8.636;2023-03-01T05:28:22;0.23;69.85
25945;SHT31;13742;49.306;8.636;2023-03-01T05:29:26;0.23;69.90
25945;SHT31;13742;49.306;8.636;2023-03-01T05:30:22;0.24;69.51
25945;SHT31;13742;49.306;8.636;2023-03-01T05:31:22;0.23;69.86
25945;SHT31;13742;49.306;8.636;2023-03-01T05:32:22;0.24;69.56
25945;SHT31;13742;49.306;8.636;2023-03-01T05:33:23;0.20;69.88
25945;SHT31;13742;49.306;8.636;2023-03-01T05:34:28;0.24;70.05
25945;SHT31;13742;49.306;8.636;2023-03-01T05:35:23;0.29;70.74
25945;SHT31;13742;49.306;8.636;2023-03-01T05:36:22;0.38;71.68
25945;SHT31;13742;49.306;8.636;2023-03-01T05:37:22;0.48;71.43
25945;SHT31;13742;49.306;8.636;2023-03-01T05:38:22;0.44;70.22
25945;SHT31;13742;49.306;8.636;2023-03-01T05:39:24;0.41;69.58
25945;SHT31;13742;49.306;8.636;2023-03-01T05:40:24;0.40;69.65
25945;SHT31;13742;49.306;8.636;2023-03-01T05:41:22;0.38;69.24
25945;SHT31;13742;49.306;8.636;2023-03-01T05:42:22;0.37;69.41
25945;SHT31;13742;49.306;8.636;2023-03-01T05:43:22;0.37;69.28
25945;SHT31;13742;49.306;8.636;2023-03-01T05:44:23;0.36;69.69
25945;SHT31;13742;49.306;8.636;2023-03-01T05:45:24;0.38;69.81
25945;SHT31;13742;49.306;8.636;2023-03-01T05:46:24;0.41;69.71
25945;SHT31;13742;49.306;8.636;2023-03-01T05:47:22;0.38;69.48
25945;SHT31;13742;49.306;8.636;2023-03-01T05:48:22;0.37;69.33
25945;SHT31;13742;49.306;8.636;2023-03-01T05:49:24;0.36;69.49
25945;SHT31;13742;49.306;8.636;2023-03-01T05:50:25;0.36;70.07
25945;SHT31;13742;49.306;8.636;2023-03-01T05:51:22;0.33;70.13
25945;SHT31;13742;49.306;8.636;2023-03-01T05:52:22;0.37;69.99
25945;SHT31;13742;49.306;8.636;2023-03-01T05:53:22;0.36;69.88
25945;SHT31;13742;49.306;8.636;2023-03-01T05:54:22;0.37;69.89
25945;SHT31;13742;49.306;8.636;2023-03-01T05:55:22;0.31;69.46
25945;SHT31;13742;49.306;8.636;2023-03-01T05:56:22;0.30;69.57
25945;SHT31;13742;49.306;8.636;2023-03-01T05:57:22;0.27;69.32
25945;SHT31;13742;49.306;8.636;2023-03-01T05:58:22;0.26;69.07
25945;SHT31;13742;49.306;8.636;2023-03-01T05:59:22;0.27;69.67
25945;SHT31;13742;49.306;8.636;2023-03-01T06:00:22;0.27;69.65
25945;SHT31;13742;49.306;8.636;2023-03-01T06:01:22;0.26;69.81
25945;SHT31;13742;49.306;8.636;2023-03-01T06:02:23;0.27;69.61
25945;SHT31;13742;49.306;8.636;2023-03-01T06:03:23;0.27;69.72
25945;SHT31;13742;49.306;8.636;2023-03-01T06:04:22;0.30;69.78
25945;SHT31;13742;49.306;8.636;2023-03-01T06:05:23;0.30;69.86
25945;SHT31;13742;49.306;8.636;2023-03-01T06:06:23;0.30;69.89
25945;SHT31;13742;49.306;8.636;2023-03-01T06:07:22;0.34;69.48
25945;SHT31;13742;49.306;8.636;2023-03-01T06:08:24;0.33;69.63
25945;SHT31;13742;49.306;8.636;2023-03-01T06:09:22;0.31;69.65
25945;SHT31;13742;49.306;8.636;2023-03-01T06:10:22;0.29;69.74
25945;SHT31;13742;49.306;8.636;2023-03-01T06:11:22;0.27;69.71
25945;SHT31;13742;49.306;8.636;2023-03-01T06:12:22;0.24;69.56
25945;SHT31;13742;49.306;8.636;2023-03-01T06:13:23;0.20;70.01
25945;SHT31;13742;49.306;8.636;2023-03-01T06:14:22;0.21;69.97
25945;SHT31;13742;49.306;8.636;2023-03-01T06:15:23;0.19;69.96
25945;SHT31;13742;49.306;8.636;2023-03-01T06:16:22;0.17;69.72
25945;SHT31;13742;49.306;8.636;2023-03-01T06:17:22;0.16;69.93
25945;SHT31;13742;49.306;8.636;2023-03-01T06:18:22;0.13;70.01
25945;SHT31;13742;49.306;8.636;2023-03-01T06:19:22;0.14;70.15
25945;SHT31;13742;49.306;8.636;2023-03-01T06:20:24;0.13;70.33
25945;SHT31;13742;49.306;8.636;2023-03-01T06:21:22;0.10;70.43
25945;SHT31;13742;49.306;8.636;2023-03-01T06:22:23;0.10;70.11
25945;SHT31;13742;49.306;8.636;2023-03-01T06:23:23;0.10;70.28
25945;SHT31;13742;49.306;8.636;2023-03-01T06:24:23;0.09;70.17
25945;SHT31;13742;49.306;8.636;2023-03-01T06:25:24;0.12;70.42
25945;SHT31;13742;49.306;8.636;2023-03-01T06:26:22;0.12;70.13
25945;SHT31;13742;49.306;8.636;2023-03-01T06:27:22;0.09;70.13
25945;SHT31;13742;49.306;8.636;2023-03-01T06:28:22;0.08;70.32
25945;SHT31;13742;49.306;8.636;2023-03-01T06:29:22;0.09;70.09
25945;SHT31;13742;49.306;8.636;2023-03-01T06:30:24;0.08;70.39